createdAt,value
2019-04-28T00:01:11.262Z,1.22
2019-04-28T00:03:41.981Z,1.92
2019-04-28T00:06:11.283Z,1.72
2019-04-28T00:08:42.742Z,1.60
2019-04-28T00:11:11.740Z,1.32
2019-04-28T00:13:41.770Z,1.47
2019-04-28T00:16:11.693Z,2.83
2019-04-28T00:18:41.557Z,1.85
2019-04-28T00:21:29.413Z,1.47
2019-04-28T00:24:23.162Z,1.27
2019-04-28T00:26:55.362Z,1.52
2019-04-28T00:29:37.253Z,2.00
2019-04-28T00:31:54.816Z,1.50
2019-04-28T00:34:24.099Z,1.20
2019-04-28T00:36:58.273Z,1.87
2019-04-28T00:39:27.189Z,1.42
2019-04-28T00:41:56.281Z,1.87
2019-04-28T00:44:25.634Z,1.35
2019-04-28T00:46:53.998Z,1.37
2019-04-28T00:49:44.871Z,1.87
2019-04-28T00:52:14.095Z,1.70
2019-04-28T00:54:43.295Z,1.57
2019-04-28T00:57:12.508Z,1.90
2019-04-28T00:59:54.249Z,1.62
2019-04-28T01:02:24.048Z,1.57
2019-04-28T01:04:53.190Z,1.77
2019-04-28T01:07:22.210Z,1.47
2019-04-28T01:09:51.712Z,1.42
2019-04-28T01:12:21.459Z,2.17
2019-04-28T01:14:54.501Z,2.45
2019-04-28T01:17:30.579Z,1.50
2019-04-28T01:20:01.341Z,1.40
2019-04-28T01:22:30.194Z,2.15
2019-04-28T01:24:59.603Z,2.17
2019-04-28T01:27:51.102Z,1.95
2019-04-28T01:30:40.392Z,2.12
2019-04-28T01:33:40.797Z,2.42
2019-04-28T01:36:10.401Z,2.30
2019-04-28T01:38:40.207Z,1.52
2019-04-28T01:41:09.894Z,2.00
2019-04-28T01:43:38.772Z,2.08
2019-04-28T01:46:07.906Z,1.90
2019-04-28T01:48:36.860Z,1.85
2019-04-28T01:51:06.333Z,2.12
2019-04-28T01:53:35.400Z,2.08
2019-04-28T01:56:04.454Z,1.77
2019-04-28T01:58:33.505Z,1.72
2019-04-28T02:01:02.653Z,1.35
2019-04-28T02:03:31.436Z,1.77
2019-04-28T02:06:00.710Z,1.85
2019-04-28T02:08:30.330Z,2.30
2019-04-28T02:11:00.226Z,1.42
2019-04-28T02:13:29.974Z,1.37
2019-04-28T02:16:00.013Z,2.35
2019-04-28T02:18:30.005Z,1.82
2019-04-28T02:21:21.430Z,2.00
2019-04-28T02:23:51.431Z,1.82
2019-04-28T02:26:20.464Z,2.30
2019-04-28T02:28:50.416Z,1.77
2019-04-28T02:31:21.513Z,1.10
2019-04-28T02:33:50.484Z,1.85
2019-04-28T02:36:20.969Z,1.40
2019-04-28T02:38:51.303Z,1.50
2019-04-28T02:41:20.924Z,1.65
2019-04-28T02:43:51.043Z,1.25
2019-04-28T02:46:21.056Z,2.25
2019-04-28T02:48:53.585Z,1.70
2019-04-28T02:51:26.694Z,2.00
2019-04-28T02:53:55.586Z,2.02
2019-04-28T02:56:24.509Z,2.22
2019-04-28T02:58:53.293Z,1.72
2019-04-28T03:01:26.407Z,2.00
2019-04-28T03:03:52.976Z,1.40
2019-04-28T03:06:21.814Z,1.65
2019-04-28T03:08:51.294Z,1.82
2019-04-28T03:11:20.511Z,1.50
2019-04-28T03:13:51.102Z,1.30
2019-04-28T03:16:22.902Z,0.95
2019-04-28T03:18:51.564Z,1.55
2019-04-28T03:21:21.514Z,1.95
2019-04-28T03:23:51.722Z,2.22
2019-04-28T03:26:50.900Z,1.12
2019-04-28T03:29:42.977Z,2.87
2019-04-28T03:32:43.929Z,0.90
2019-04-28T03:35:03.487Z,1.05
2019-04-28T03:37:32.302Z,1.87
2019-04-28T03:40:01.365Z,2.05
2019-04-28T03:42:31.407Z,1.60
2019-04-28T03:45:01.668Z,0.85
2019-04-28T03:47:31.513Z,0.95
2019-04-28T03:50:00.505Z,2.12
2019-04-28T03:52:31.812Z,1.85
2019-04-28T03:55:00.525Z,1.15
2019-04-28T03:57:31.369Z,2.00
2019-04-28T04:00:01.559Z,1.40
2019-04-28T04:02:31.359Z,2.15
2019-04-28T04:05:03.868Z,1.55
2019-04-28T04:07:31.556Z,1.70
2019-04-28T04:10:14.862Z,1.87
2019-04-28T04:13:11.651Z,2.35
2019-04-28T04:15:53.525Z,1.70
2019-04-28T04:18:40.813Z,2.58
2019-04-28T04:21:11.092Z,1.30
2019-04-28T04:23:41.121Z,2.10
2019-04-28T04:26:11.659Z,1.07
2019-04-28T04:28:41.824Z,1.75
2019-04-28T04:31:10.902Z,1.90
2019-04-28T04:33:41.108Z,2.35
2019-04-28T04:36:11.596Z,2.20
2019-04-28T04:38:45.943Z,1.72
2019-04-28T04:41:12.229Z,2.60
2019-04-28T04:43:41.796Z,3.22
2019-04-28T04:46:22.061Z,2.25
2019-04-28T04:48:50.946Z,2.05
2019-04-28T04:51:21.192Z,1.80
2019-04-28T04:53:51.456Z,2.33
2019-04-28T04:56:21.525Z,1.65
2019-04-28T04:58:50.981Z,2.30
2019-04-28T05:01:45.283Z,2.17
2019-04-28T05:04:45.618Z,1.82
2019-04-28T05:07:14.420Z,3.37
2019-04-28T05:09:43.553Z,2.80
2019-04-28T05:12:12.742Z,3.60
2019-04-28T05:14:41.726Z,2.67
2019-04-28T05:17:11.345Z,1.95
2019-04-28T05:19:40.523Z,2.08
2019-04-28T05:22:10.242Z,2.00
2019-04-28T05:24:54.516Z,2.92
2019-04-28T05:27:25.634Z,2.60
2019-04-28T05:29:56.849Z,2.12
2019-04-28T05:32:25.523Z,2.80
2019-04-28T05:34:54.370Z,2.52
2019-04-28T05:37:23.476Z,3.45
2019-04-28T05:39:52.670Z,3.02
2019-04-28T05:42:21.700Z,2.90
2019-04-28T05:44:50.928Z,2.95
2019-04-28T05:47:20.300Z,2.85
2019-04-28T05:50:00.225Z,2.67
2019-04-28T05:52:50.120Z,3.00
2019-04-28T05:55:22.507Z,3.25
2019-04-28T05:58:17.181Z,3.17
2019-04-28T06:00:53.073Z,3.92
2019-04-28T06:03:23.215Z,4.08
2019-04-28T06:05:52.183Z,3.77
2019-04-28T06:08:40.723Z,2.62
2019-04-28T06:11:28.050Z,4.03
2019-04-28T06:13:56.918Z,4.60
2019-04-28T06:16:25.772Z,3.33
2019-04-28T06:18:54.913Z,2.87
2019-04-28T06:21:23.813Z,2.05
2019-04-28T06:23:52.720Z,3.83
2019-04-28T06:26:21.589Z,2.72
2019-04-28T06:28:50.692Z,4.17
2019-04-28T06:31:19.646Z,3.75
2019-04-28T06:33:48.799Z,3.30
2019-04-28T06:36:17.713Z,3.70
2019-04-28T06:38:46.959Z,4.95
2019-04-28T06:41:16.162Z,3.42
2019-04-28T06:43:45.077Z,2.45
2019-04-28T06:46:13.943Z,3.50
2019-04-28T06:48:43.315Z,3.92
2019-04-28T06:51:12.169Z,3.42
2019-04-28T06:53:41.039Z,2.45
2019-04-28T06:56:10.111Z,2.15
2019-04-28T06:58:39.099Z,3.67
2019-04-28T07:01:08.224Z,3.70
2019-04-28T07:03:36.994Z,2.37
2019-04-28T07:06:05.984Z,3.60
2019-04-28T07:08:35.056Z,3.67
2019-04-28T07:11:04.402Z,2.65
2019-04-28T07:13:33.439Z,2.10
2019-04-28T07:16:02.664Z,2.95
2019-04-28T07:18:31.822Z,3.80
2019-04-28T07:21:09.964Z,2.60
2019-04-28T07:23:39.986Z,2.87
2019-04-28T07:26:09.030Z,2.62
2019-04-28T07:28:38.073Z,5.05
2019-04-28T07:31:07.241Z,4.20
2019-04-28T07:33:36.504Z,4.08
2019-04-28T07:36:05.772Z,4.37
2019-04-28T07:38:35.191Z,2.00
2019-04-28T07:41:04.247Z,2.87
2019-04-28T07:43:33.389Z,3.35
2019-04-28T07:46:02.447Z,4.20
2019-04-28T07:48:31.403Z,2.77
2019-04-28T07:51:00.396Z,3.35
2019-04-28T07:53:38.561Z,2.33
2019-04-28T07:56:07.981Z,2.50
2019-04-28T07:58:37.082Z,4.45
2019-04-28T08:01:07.854Z,3.65
2019-04-28T08:03:48.866Z,3.10
2019-04-28T08:06:07.499Z,4.90
2019-04-28T08:08:36.647Z,3.08
2019-04-28T08:11:05.635Z,2.65
2019-04-28T08:13:34.473Z,4.05
2019-04-28T08:16:03.570Z,4.37
2019-04-28T08:18:32.914Z,5.08
2019-04-28T08:21:01.811Z,4.17
2019-04-28T08:23:30.681Z,3.15
2019-04-28T08:25:59.519Z,2.47
2019-04-28T08:28:28.685Z,3.72
2019-04-28T08:30:57.558Z,3.10
2019-04-28T08:33:43.995Z,3.67
2019-04-28T08:36:12.827Z,4.42
2019-04-28T08:38:41.781Z,2.90
2019-04-28T08:41:10.697Z,2.95
2019-04-28T08:43:39.882Z,3.92
2019-04-28T08:46:09.155Z,2.70
2019-04-28T08:48:38.064Z,2.40
2019-04-28T08:51:06.868Z,3.35
2019-04-28T08:53:36.199Z,2.00
2019-04-28T08:56:05.171Z,2.42
2019-04-28T08:58:34.018Z,2.90
2019-04-28T09:01:02.932Z,2.12
2019-04-28T09:03:32.001Z,2.05
2019-04-28T09:06:01.485Z,2.72
2019-04-28T09:08:30.377Z,1.90
2019-04-28T09:10:59.162Z,2.20
2019-04-28T09:13:27.950Z,2.35
2019-04-28T09:15:56.728Z,2.90
2019-04-28T09:18:25.759Z,2.47
2019-04-28T09:20:54.632Z,2.50
2019-04-28T09:23:23.483Z,5.55
2019-04-28T09:25:52.640Z,2.60
2019-04-28T09:28:21.411Z,2.70
2019-04-28T09:30:50.318Z,2.90
2019-04-28T09:33:19.162Z,2.37
2019-04-28T09:35:48.430Z,1.75
2019-04-28T09:38:17.196Z,2.30
2019-04-28T09:40:46.150Z,2.37
2019-04-28T09:43:25.394Z,2.70
2019-04-28T09:46:00.124Z,1.70
2019-04-28T09:48:29.067Z,2.27
2019-04-28T09:50:58.007Z,2.10
2019-04-28T09:53:26.788Z,2.77
2019-04-28T09:55:55.639Z,2.15
2019-04-28T09:58:24.812Z,2.55
2019-04-28T10:00:53.663Z,2.73
2019-04-28T10:03:25.275Z,3.20
2019-04-28T10:05:53.536Z,2.77
2019-04-28T10:08:22.475Z,2.50
2019-04-28T10:10:51.950Z,2.30
2019-04-28T10:13:20.749Z,3.40
2019-04-28T10:15:49.977Z,2.93
2019-04-28T10:18:19.147Z,2.77
2019-04-28T10:20:48.183Z,4.27
2019-04-28T10:23:17.567Z,2.53
2019-04-28T10:25:46.413Z,2.73
2019-04-28T10:28:15.513Z,3.27
2019-04-28T10:30:44.443Z,2.63
2019-04-28T10:33:13.603Z,2.20
2019-04-28T10:35:42.543Z,2.70
2019-04-28T10:38:11.444Z,3.20
2019-04-28T10:41:09.071Z,2.57
2019-04-28T10:43:38.215Z,2.80
2019-04-28T10:46:07.054Z,3.63
2019-04-28T10:48:36.466Z,2.93
2019-04-28T10:51:05.634Z,2.67
2019-04-28T10:53:34.730Z,3.00
2019-04-28T10:56:03.793Z,2.87
2019-04-28T10:58:32.639Z,1.53
2019-04-28T11:01:01.605Z,2.57
2019-04-28T11:03:30.424Z,2.33
2019-04-28T11:05:59.171Z,2.97
2019-04-28T11:09:02.300Z,2.93
2019-04-28T11:11:30.707Z,2.03
2019-04-28T11:13:59.869Z,2.83
2019-04-28T11:16:32.596Z,2.40
2019-04-28T11:19:01.615Z,2.80
2019-04-28T11:21:30.531Z,2.33
2019-04-28T11:23:59.383Z,2.93
2019-04-28T11:26:28.508Z,3.57
2019-04-28T11:28:57.347Z,2.53
2019-04-28T11:31:26.328Z,2.60
2019-04-28T11:34:05.119Z,2.47
2019-04-28T11:36:34.331Z,2.53
2019-04-28T11:39:04.703Z,2.90
2019-04-28T11:41:33.796Z,2.67
2019-04-28T11:44:02.943Z,3.07
2019-04-28T11:46:32.139Z,2.40
2019-04-28T11:49:01.259Z,3.13
2019-04-28T11:51:30.383Z,3.17
2019-04-28T11:53:59.222Z,3.10
2019-04-28T11:56:40.499Z,2.40
2019-04-28T11:58:58.773Z,2.90
2019-04-28T12:01:28.057Z,3.20
2019-04-28T12:04:00.321Z,3.77
2019-04-28T12:06:29.251Z,3.03
2019-04-28T12:09:03.810Z,2.70
2019-04-28T12:11:35.323Z,4.00
2019-04-28T12:14:12.979Z,3.07
2019-04-28T12:16:59.765Z,3.27
2019-04-28T12:19:39.380Z,3.53
2019-04-28T12:22:08.292Z,12.80
2019-04-28T12:24:37.208Z,9.20
2019-04-28T12:27:06.461Z,4.07
2019-04-28T12:29:35.329Z,3.40
2019-04-28T12:32:04.226Z,3.60
2019-04-28T12:34:33.563Z,3.50
2019-04-28T12:37:02.707Z,2.53
2019-04-28T12:39:31.579Z,2.67
2019-04-28T12:42:00.522Z,3.07
2019-04-28T12:44:29.638Z,2.33
2019-04-28T12:46:58.409Z,2.90
2019-04-28T12:49:42.945Z,3.47
2019-04-28T12:52:12.017Z,3.27
2019-04-28T12:54:41.047Z,3.73
2019-04-28T12:57:09.961Z,2.90
2019-04-28T12:59:53.082Z,3.53
2019-04-28T13:02:58.688Z,3.27
2019-04-28T13:05:27.629Z,2.33
2019-04-28T13:07:56.587Z,2.53
2019-04-28T13:10:25.419Z,2.97
2019-04-28T13:12:54.747Z,3.13
2019-04-28T13:15:23.726Z,3.10
2019-04-28T13:17:53.231Z,2.43
2019-04-28T13:20:22.275Z,3.23
2019-04-28T13:22:51.698Z,2.13
2019-04-28T13:25:20.673Z,2.53
2019-04-28T13:27:49.479Z,2.80
2019-04-28T13:30:18.407Z,3.07
2019-04-28T13:32:47.639Z,2.47
2019-04-28T13:35:16.640Z,2.53
2019-04-28T13:37:45.643Z,3.40
2019-04-28T13:40:21.268Z,2.30
2019-04-28T13:42:50.009Z,2.00
2019-04-28T13:45:21.272Z,2.77
2019-04-28T13:47:50.134Z,2.27
2019-04-28T13:50:25.107Z,2.73
2019-04-28T13:52:54.046Z,3.27
2019-04-28T13:55:40.623Z,2.30
2019-04-28T13:58:09.748Z,2.40
2019-04-28T14:00:57.759Z,2.40
2019-04-28T14:03:34.618Z,1.80
2019-04-28T14:06:06.779Z,3.97
2019-04-28T14:08:35.627Z,2.67
2019-04-28T14:11:04.554Z,1.80
2019-04-28T14:13:33.490Z,2.83
2019-04-28T14:16:02.694Z,3.03
2019-04-28T14:18:31.591Z,4.77
2019-04-28T14:21:00.736Z,3.40
2019-04-28T14:23:29.617Z,2.57
2019-04-28T14:25:58.374Z,3.10
2019-04-28T14:28:27.671Z,3.40
2019-04-28T14:30:56.864Z,2.63
2019-04-28T14:33:25.951Z,2.50
2019-04-28T14:35:54.765Z,2.90
2019-04-28T14:38:23.962Z,3.07
2019-04-28T14:40:52.805Z,2.50
2019-04-28T14:43:21.658Z,2.30
2019-04-28T14:45:50.705Z,2.60
2019-04-28T14:48:19.951Z,2.03
2019-04-28T14:50:49.199Z,2.30
2019-04-28T14:53:18.031Z,2.67
2019-04-28T14:55:46.963Z,2.80
2019-04-28T14:58:16.098Z,2.83
2019-04-28T15:00:49.674Z,2.50
2019-04-28T15:03:18.616Z,1.80
2019-04-28T15:06:15.029Z,3.77
2019-04-28T15:08:57.641Z,2.47
2019-04-28T15:11:42.667Z,3.70
2019-04-28T15:14:12.150Z,2.90
2019-04-28T15:16:41.400Z,3.20
2019-04-28T15:19:10.222Z,3.10
2019-04-28T15:21:39.068Z,2.70
2019-04-28T15:24:07.847Z,2.50
2019-04-28T15:26:36.999Z,4.47
2019-04-28T15:29:06.147Z,2.20
2019-04-28T15:31:35.227Z,2.80
2019-04-28T15:34:04.377Z,2.20
2019-04-28T15:36:33.443Z,2.80
2019-04-28T15:39:02.706Z,3.23
2019-04-28T15:41:31.687Z,2.80
2019-04-28T15:44:00.517Z,3.00
2019-04-28T15:46:29.515Z,3.53
2019-04-28T15:48:58.589Z,2.70
2019-04-28T15:51:28.551Z,2.50
2019-04-28T15:53:57.339Z,2.40
2019-04-28T15:56:44.937Z,2.47
2019-04-28T15:59:13.977Z,2.93
2019-04-28T16:01:42.842Z,2.60
2019-04-28T16:04:11.634Z,2.70
2019-04-28T16:06:41.566Z,2.57
2019-04-28T16:09:14.369Z,2.37
2019-04-28T16:11:43.957Z,1.50
2019-04-28T16:14:12.823Z,2.50
2019-04-28T16:16:41.717Z,2.50
2019-04-28T16:19:10.733Z,3.10
2019-04-28T16:21:39.655Z,3.20
2019-04-28T16:24:08.921Z,1.90
2019-04-28T16:26:37.708Z,2.60
2019-04-28T16:29:06.631Z,1.97
2019-04-28T16:31:35.941Z,2.20
2019-04-28T16:34:04.863Z,1.60
2019-04-28T16:36:33.737Z,2.97
2019-04-28T16:39:02.583Z,2.00
2019-04-28T16:41:33.383Z,2.20
2019-04-28T16:44:08.931Z,2.07
2019-04-28T16:46:38.516Z,2.30
2019-04-28T16:49:07.299Z,2.60
2019-04-28T16:51:36.863Z,2.83
2019-04-28T16:54:05.814Z,1.70
2019-04-28T16:56:44.066Z,2.17
2019-04-28T16:59:50.714Z,1.80
2019-04-28T17:02:31.510Z,2.10
2019-04-28T17:05:00.443Z,2.50
2019-04-28T17:07:29.654Z,2.40
2019-04-28T17:09:58.653Z,2.10
2019-04-28T17:12:27.531Z,2.13
2019-04-28T17:14:56.702Z,2.30
2019-04-28T17:17:25.675Z,2.27
2019-04-28T17:19:54.590Z,2.10
2019-04-28T17:22:23.460Z,1.50
2019-04-28T17:24:52.619Z,1.43
2019-04-28T17:27:21.392Z,1.50
2019-04-28T17:29:51.259Z,1.30
2019-04-28T17:32:20.771Z,1.90
2019-04-28T17:34:49.561Z,1.40
2019-04-28T17:37:18.740Z,1.63
2019-04-28T17:39:48.256Z,1.70
2019-04-28T17:42:17.384Z,1.00
2019-04-28T17:44:46.332Z,0.87
2019-04-28T17:47:16.822Z,1.07
2019-04-28T17:49:45.677Z,1.20
2019-04-28T17:52:14.644Z,1.00
2019-04-28T17:54:43.518Z,1.27
2019-04-28T17:57:12.454Z,1.20
2019-04-28T17:59:41.710Z,1.50
2019-04-28T18:02:32.810Z,1.33
2019-04-28T18:05:18.719Z,1.17
2019-04-28T18:07:49.466Z,1.60
2019-04-28T18:10:20.059Z,1.53
2019-04-28T18:12:59.917Z,2.07
2019-04-28T18:15:34.287Z,1.97
2019-04-28T18:18:11.906Z,1.10
2019-04-28T18:20:41.015Z,8.20
2019-04-28T18:23:10.403Z,5.57
2019-04-28T18:25:39.325Z,3.10
2019-04-28T18:28:08.184Z,1.57
2019-04-28T18:30:40.752Z,1.10
2019-04-28T18:33:27.683Z,1.40
2019-04-28T18:36:02.204Z,1.20
2019-04-28T18:38:56.684Z,1.50
2019-04-28T18:41:43.307Z,1.67
2019-04-28T18:44:19.026Z,1.63
2019-04-28T18:46:48.257Z,1.30
2019-04-28T18:49:17.116Z,1.17
2019-04-28T18:51:46.275Z,1.03
2019-04-28T18:54:15.267Z,1.40
2019-04-28T18:56:44.247Z,1.70
2019-04-28T18:59:13.492Z,1.20
2019-04-28T19:01:48.304Z,1.33
2019-04-28T19:04:17.436Z,1.30
2019-04-28T19:06:46.199Z,1.50
2019-04-28T19:09:34.123Z,1.63
2019-04-28T19:12:21.099Z,1.33
2019-04-28T19:14:58.460Z,1.60
2019-04-28T19:17:39.571Z,1.90
2019-04-28T19:20:08.840Z,1.10
2019-04-28T19:22:47.867Z,2.13
2019-04-28T19:25:16.735Z,1.93
2019-04-28T19:27:45.574Z,2.20
2019-04-28T19:30:14.678Z,2.07
2019-04-28T19:32:43.710Z,1.20
2019-04-28T19:35:12.762Z,1.47
2019-04-28T19:37:41.953Z,1.70
2019-04-28T19:40:11.156Z,1.77
2019-04-28T19:42:40.443Z,2.00
2019-04-28T19:45:12.094Z,1.50
2019-04-28T19:47:41.162Z,1.57
2019-04-28T19:50:10.615Z,1.47
2019-04-28T19:52:42.520Z,1.73
2019-04-28T19:55:19.905Z,1.50
2019-04-28T19:57:54.016Z,1.77
2019-04-28T20:00:45.746Z,1.97
2019-04-28T20:03:15.000Z,1.43
2019-04-28T20:05:43.867Z,2.00
2019-04-28T20:08:13.275Z,1.50
2019-04-28T20:10:42.165Z,1.23
2019-04-28T20:13:11.020Z,1.63
2019-04-28T20:15:39.867Z,1.60
2019-04-28T20:18:08.743Z,1.23
2019-04-28T20:20:37.679Z,1.63
2019-04-28T20:23:06.535Z,1.70
2019-04-28T20:25:35.594Z,1.60
2019-04-28T20:28:04.691Z,1.53
2019-04-28T20:30:34.094Z,1.20
2019-04-28T20:33:07.542Z,1.50
2019-04-28T20:35:36.484Z,1.93
2019-04-28T20:38:27.874Z,1.57
2019-04-28T20:41:02.359Z,1.72
2019-04-28T20:43:31.018Z,2.12
2019-04-28T20:46:00.453Z,1.53
2019-04-28T20:48:29.357Z,1.93
2019-04-28T20:50:58.564Z,1.60
2019-04-28T20:53:27.333Z,1.60
2019-04-28T20:55:56.540Z,1.83
2019-04-28T20:58:25.446Z,1.62
2019-04-28T21:00:54.418Z,1.62
2019-04-28T21:03:23.501Z,2.03
2019-04-28T21:05:52.491Z,1.80
2019-04-28T21:08:21.307Z,1.83
2019-04-28T21:10:50.167Z,1.70
2019-04-28T21:13:19.276Z,2.20
2019-04-28T21:15:48.180Z,1.90
2019-04-28T21:18:17.131Z,1.87
2019-04-28T21:20:46.263Z,1.97
2019-04-28T21:23:15.115Z,1.80
2019-04-28T21:25:43.987Z,1.50
2019-04-28T21:28:12.908Z,1.80
2019-04-28T21:30:42.410Z,1.97
2019-04-28T21:33:11.296Z,2.22
2019-04-28T21:35:40.151Z,2.10
2019-04-28T21:38:08.975Z,2.47
2019-04-28T21:40:38.771Z,2.60
2019-04-28T21:43:32.710Z,2.15
2019-04-28T21:46:23.559Z,1.67
2019-04-28T21:48:55.540Z,2.10
2019-04-28T21:51:24.218Z,1.85
2019-04-28T21:53:53.706Z,2.00
2019-04-28T21:56:22.556Z,2.45
2019-04-28T21:58:51.459Z,2.70
2019-04-28T22:01:22.383Z,2.00
2019-04-28T22:03:51.467Z,1.95
2019-04-28T22:06:20.507Z,2.83
2019-04-28T22:08:49.680Z,3.20
2019-04-28T22:11:18.865Z,2.47
2019-04-28T22:13:47.702Z,2.62
2019-04-28T22:16:16.953Z,2.87
2019-04-28T22:18:45.296Z,3.15
2019-04-28T22:21:14.355Z,3.05
2019-04-28T22:23:50.877Z,2.83
2019-04-28T22:26:37.463Z,3.60
2019-04-28T22:29:06.324Z,3.47
2019-04-28T22:31:35.494Z,3.35
2019-04-28T22:34:04.470Z,3.25
2019-04-28T22:36:33.589Z,3.90
2019-04-28T22:39:02.455Z,3.00
2019-04-28T22:41:31.442Z,3.30
2019-04-28T22:44:00.607Z,4.20
2019-04-28T22:46:29.412Z,3.77
2019-04-28T22:48:59.931Z,3.45
2019-04-28T22:51:28.780Z,3.90
2019-04-28T22:53:59.804Z,4.80
2019-04-28T22:56:35.284Z,4.28
2019-04-28T22:59:09.637Z,5.40
2019-04-28T23:01:42.376Z,4.20
2019-04-28T23:04:39.932Z,3.10
2019-04-28T23:07:08.922Z,3.45
2019-04-28T23:09:37.928Z,3.27
2019-04-28T23:12:08.338Z,4.30
2019-04-28T23:14:37.126Z,5.25
2019-04-28T23:17:07.705Z,5.22
2019-04-28T23:19:38.493Z,4.28
2019-04-28T23:22:13.221Z,3.37
2019-04-28T23:24:42.433Z,3.40
2019-04-28T23:27:11.210Z,3.80
2019-04-28T23:29:40.047Z,4.17
2019-04-28T23:32:08.569Z,3.75
2019-04-28T23:34:37.383Z,4.35
2019-04-28T23:37:06.331Z,4.50
2019-04-28T23:39:35.222Z,3.58
2019-04-28T23:42:13.480Z,4.00
2019-04-28T23:44:42.667Z,4.60
2019-04-28T23:47:11.675Z,4.70
2019-04-28T23:49:40.783Z,3.87
2019-04-28T23:52:47.343Z,5.30
2019-04-28T23:55:17.432Z,4.78
2019-04-28T23:57:46.788Z,3.85
